Time;durP1;ratioP1;P1;durP2;ratioP2;P2;SDS_P1;SDS_P2;PMS_P1;PMS_P2;Temp;Humidity;BMP_temperature;BMP_pressure;BME280_temperature;BME280_humidity;BME280_pressure;Samples;Min_cycle;Max_cycle;Signal;HPM_P1;HPM_P2
2021/01/24 00:01:02;;;;;;;9.78;6.20;;;;;;;0.69;84.81;91469.44;1821192;78;21089;-74
2021/01/24 00:03:31;;;;;;;12.30;7.45;;;;;;;0.53;85.05;91471.14;1819876;77;21182;-74
2021/01/24 00:05:59;;;;;;;8.00;4.70;;;;;;;0.41;85.03;91478.16;1853487;77;21206;-74
2021/01/24 00:08:26;;;;;;;6.17;3.60;;;;;;;0.27;85.64;91473.56;1823147;75;21188;-74
2021/01/24 00:10:54;;;;;;;7.08;3.47;;;;;;;0.18;86.32;91476.57;1819813;78;21145;-74
2021/01/24 00:13:21;;;;;;;17.23;7.22;;;;;;;0.19;86.61;91475.45;1817746;78;21690;-74
2021/01/24 00:15:48;;;;;;;12.53;6.12;;;;;;;0.22;86.67;91480.59;1815202;77;21366;-74
2021/01/24 00:18:16;;;;;;;16.23;7.50;;;;;;;0.19;86.85;91474.69;1818172;78;21186;-74
2021/01/24 00:20:43;;;;;;;5.47;3.40;;;;;;;0.23;86.61;91460.19;1815158;77;21218;-74
2021/01/24 00:23:11;;;;;;;48.33;23.80;;;;;;;0.29;86.89;91459.80;1817691;77;21506;-74
2021/01/24 00:25:38;;;;;;;41.88;21.65;;;;;;;0.39;85.87;91459.83;1817700;77;21214;-74
2021/01/24 00:28:06;;;;;;;18.00;9.63;;;;;;;0.32;84.54;91451.80;1818394;77;21358;-74
2021/01/24 00:30:34;;;;;;;40.85;20.68;;;;;;;0.17;85.22;91452.33;1794215;79;22220;-74
2021/01/24 00:33:02;;;;;;;41.18;20.12;;;;;;;0.11;85.10;91460.50;1820510;78;21151;-74
2021/01/24 00:35:30;;;;;;;43.38;22.22;;;;;;;0.04;84.86;91459.72;1855329;76;21162;-74
2021/01/24 00:37:57;;;;;;;37.80;19.52;;;;;;;-0.06;84.98;91451.30;1846876;77;21182;-74
2021/01/24 00:40:24;;;;;;;47.23;23.65;;;;;;;-0.08;85.06;91446.89;1846324;76;21744;-74
2021/01/24 00:42:52;;;;;;;38.75;19.32;;;;;;;-0.12;84.96;91439.43;1853485;75;21366;-74
2021/01/24 00:45:20;;;;;;;57.00;29.70;;;;;;;-0.13;85.13;91441.16;1841112;77;21386;-74
2021/01/24 00:47:47;;;;;;;55.43;26.90;;;;;;;-0.15;85.07;91438.08;1852529;75;21186;-74
2021/01/24 00:50:15;;;;;;;32.45;15.08;;;;;;;-0.21;85.21;91436.93;1845588;76;22046;-73
2021/01/24 00:52:42;;;;;;;44.53;22.32;;;;;;;-0.27;85.77;91445.28;1823868;77;22548;-74
2021/01/24 00:55:11;;;;;;;42.27;21.35;;;;;;;-0.26;86.13;91446.08;1844269;77;21195;-74
2021/01/24 00:57:44;;;;;;;36.83;18.30;;;;;;;-0.27;85.99;91449.30;1790011;80;21396;-73
2021/01/24 01:00:12;;;;;;;35.20;16.73;;;;;;;-0.28;85.87;91442.42;1858685;77;21114;-73
2021/01/24 01:02:40;;;;;;;39.20;18.82;;;;;;;-0.28;85.95;91434.98;1822231;77;21677;-73
2021/01/24 01:05:07;;;;;;;42.95;21.73;;;;;;;-0.28;85.98;91437.09;1851265;76;21507;-73
2021/01/24 01:07:35;;;;;;;39.38;20.90;;;;;;;-0.29;85.73;91438.23;1852987;76;21159;-74
2021/01/24 01:10:04;;;;;;;42.90;21.52;;;;;;;-0.32;85.71;91441.65;1790187;78;21672;-73
2021/01/24 01:12:31;;;;;;;44.70;23.25;;;;;;;-0.34;85.79;91441.81;1853562;77;21155;-74
2021/01/24 01:14:59;;;;;;;44.55;22.20;;;;;;;-0.37;85.76;91439.34;1806298;78;21168;-72
2021/01/24 01:17:26;;;;;;;62.43;30.70;;;;;;;-0.39;85.73;91434.17;1820049;78;21372;-74
2021/01/24 01:19:54;;;;;;;58.00;27.33;;;;;;;-0.46;86.02;91428.23;1823520;78;21161;-74
2021/01/24 01:22:21;;;;;;;61.30;29.42;;;;;;;-0.52;86.34;91419.82;1881039;76;21143;-73
2021/01/24 01:24:49;;;;;;;44.43;20.23;;;;;;;-0.54;86.34;91416.75;1848808;77;21153;-71
2021/01/24 01:27:17;;;;;;;50.70;24.67;;;;;;;-0.55;86.53;91408.55;1877660;76;21167;-74
2021/01/24 01:29:44;;;;;;;58.47;28.13;;;;;;;-0.50;86.83;91407.42;1817162;76;21195;-73
2021/01/24 01:32:12;;;;;;;63.33;35.70;;;;;;;-0.45;86.80;91415.64;1834420;75;21633;-73
2021/01/24 01:34:40;;;;;;;27.62;15.35;;;;;;;-0.39;87.10;91418.91;1855620;76;21200;-75
2021/01/24 01:37:07;;;;;;;22.15;11.48;;;;;;;-0.37;87.24;91412.64;1793285;76;21148;-72
2021/01/24 01:39:37;;;;;;;18.20;8.80;;;;;;;-0.34;87.48;91415.91;1911619;75;21202;-73
2021/01/24 01:42:15;;;;;;;10.90;5.45;;;;;;;-0.30;87.59;91410.00;1810968;76;21204;-74
2021/01/24 01:44:44;;;;;;;13.83;6.60;;;;;;;-0.29;87.63;91416.87;1830322;76;21222;-74
2021/01/24 01:47:15;;;;;;;9.13;5.05;;;;;;;-0.28;87.82;91417.63;1853765;76;21911;-73
2021/01/24 01:49:42;;;;;;;7.90;3.45;;;;;;;-0.26;87.85;91416.13;1838568;75;21044;-73
2021/01/24 01:52:10;;;;;;;29.02;11.70;;;;;;;-0.28;87.90;91412.28;1875036;76;21190;-73
2021/01/24 01:54:38;;;;;;;37.00;16.20;;;;;;;-0.29;87.71;91419.54;1773899;80;21207;-73
2021/01/24 01:57:05;;;;;;;28.15;15.53;;;;;;;-0.31;87.40;91415.12;1844212;77;21643;-73
2021/01/24 01:59:33;;;;;;;43.70;21.27;;;;;;;-0.33;87.30;91413.42;1874349;75;21158;-74
2021/01/24 02:02:31;;;;;;;42.03;21.40;;;;;;;-0.34;87.13;91415.91;1845998;77;21527;-73
2021/01/24 02:05:26;;;;;;;26.93;13.95;;;;;;;-0.37;86.73;91416.65;1836057;76;21163;-74
2021/01/24 02:08:01;;;;;;;23.75;11.18;;;;;;;-0.45;87.13;91421.77;1855174;76;21630;-74
2021/01/24 02:10:37;;;;;;;;;;;;;;;-0.48;87.92;91424.42;1793764;78;22166;-73
2021/01/24 02:13:09;;;;;;;44.95;23.15;;;;;;;-0.42;88.15;91426.34;1819932;78;26646;-71
2021/01/24 02:15:36;;;;;;;32.42;17.07;;;;;;;-0.43;87.67;91408.79;1810546;79;21211;-73
2021/01/24 02:18:06;;;;;;;28.00;15.20;;;;;;;-0.45;87.57;91408.95;1860147;76;21543;-74
2021/01/24 02:21:17;;;;;;;21.85;11.88;;;;;;;-0.45;87.74;91406.29;1843422;76;21624;-74
2021/01/24 02:23:45;;;;;;;17.55;9.03;;;;;;;-0.44;87.83;91406.51;1819279;78;21161;-72
2021/01/24 02:26:49;;;;;;;16.15;8.48;;;;;;;-0.43;87.61;91412.03;1841252;76;21642;-73
2021/01/24 02:29:22;;;;;;;37.95;21.20;;;;;;;-0.42;87.86;91404.97;1830962;76;21443;-74
2021/01/24 02:31:49;;;;;;;31.65;18.12;;;;;;;-0.35;87.88;91403.67;1794646;78;21174;-74
2021/01/24 02:34:20;;;;;;;29.95;18.67;;;;;;;-0.36;87.36;91404.81;1829480;77;21606;-74
2021/01/24 02:36:47;;;;;;;31.10;15.30;;;;;;;-0.39;87.49;91400.22;1811715;79;21147;-72
2021/01/24 02:39:15;;;;;;;28.98;14.68;;;;;;;-0.39;87.52;91402.89;1865570;76;21124;-74
2021/01/24 02:41:43;;;;;;;26.23;14.40;;;;;;;-0.39;87.44;91396.79;1816992;77;21642;-74
2021/01/24 02:44:11;;;;;;;32.83;17.95;;;;;;;-0.38;87.28;91399.65;1835653;76;21197;-73
2021/01/24 02:46:39;;;;;;;26.48;14.03;;;;;;;-0.39;87.05;91404.80;1889524;75;21184;-73
2021/01/24 02:49:07;;;;;;;29.37;15.80;;;;;;;-0.43;87.03;91402.11;1838007;78;21155;-74
2021/01/24 02:51:35;;;;;;;31.60;17.42;;;;;;;-0.42;87.29;91388.95;1783345;80;21150;-74
2021/01/24 02:54:03;;;;;;;25.97;14.98;;;;;;;-0.39;87.26;91391.45;1819647;78;21203;-74
2021/01/24 02:56:30;;;;;;;26.42;15.00;;;;;;;-0.39;87.11;91386.87;1826531;78;21192;-73
2021/01/24 02:58:57;;;;;;;35.13;18.73;;;;;;;-0.39;87.00;91390.11;1833270;77;21208;-74
2021/01/24 03:01:26;;;;;;;30.88;17.50;;;;;;;-0.43;86.92;91381.33;1827690;77;21123;-74
2021/01/24 03:03:54;;;;;;;30.48;17.05;;;;;;;-0.44;87.05;91385.14;1756657;81;21139;-72
2021/01/24 03:06:21;;;;;;;33.00;19.07;;;;;;;-0.46;87.07;91377.49;1869757;75;21175;-74
2021/01/24 03:08:49;;;;;;;24.43;13.53;;;;;;;-0.45;87.21;91381.72;1870095;75;21506;-74
2021/01/24 03:11:17;;;;;;;27.67;15.72;;;;;;;-0.43;87.36;91377.32;1814515;76;22109;-74
2021/01/24 03:13:55;;;;;;;28.92;14.10;;;;;;;-0.40;87.42;91370.66;1881575;75;21633;-74
2021/01/24 03:16:22;;;;;;;18.07;11.57;;;;;;;-0.35;87.36;91370.28;1816211;78;21152;-73
2021/01/24 03:18:51;;;;;;;25.45;12.45;;;;;;;-0.31;87.45;91367.05;1772492;79;21646;-74
2021/01/24 03:21:18;;;;;;;18.95;11.75;;;;;;;-0.27;87.52;91367.06;1842119;77;21163;-74
2021/01/24 03:23:45;;;;;;;25.37;13.35;;;;;;;-0.21;87.51;91368.24;1795774;79;21153;-73
2021/01/24 03:26:13;;;;;;;25.82;13.85;;;;;;;-0.16;87.33;91367.11;1785077;80;21159;-73
2021/01/24 03:28:40;;;;;;;20.82;11.48;;;;;;;-0.12;87.31;91363.30;1821512;77;21116;-73
2021/01/24 03:31:08;;;;;;;19.90;12.00;;;;;;;-0.06;87.02;91361.79;1785833;80;21298;-74
2021/01/24 03:33:37;;;;;;;23.30;13.03;;;;;;;-0.03;86.76;91356.27;1844386;77;21102;-74
2021/01/24 03:36:05;;;;;;;26.85;16.17;;;;;;;0.00;86.72;91356.86;1864287;76;21409;-74
2021/01/24 03:38:33;;;;;;;26.73;15.35;;;;;;;0.04;86.47;91348.27;1836439;77;21154;-74
2021/01/24 03:41:00;;;;;;;31.37;16.48;;;;;;;0.07;86.25;91351.50;1843739;77;21092;-73
2021/01/24 03:43:28;;;;;;;32.98;18.30;;;;;;;0.06;86.16;91352.65;1840779;77;21159;-73
2021/01/24 03:45:55;;;;;;;27.07;14.80;;;;;;;0.07;86.15;91344.05;1869733;76;21016;-74
2021/01/24 03:48:24;;;;;;;27.55;15.93;;;;;;;0.10;86.04;91343.30;1823478;76;22310;-74
2021/01/24 03:50:52;;;;;;;32.35;17.15;;;;;;;0.12;85.92;91345.80;1801759;78;21198;-74
2021/01/24 03:53:20;;;;;;;23.15;12.40;;;;;;;0.09;85.91;91350.56;1852753;77;21115;-73
2021/01/24 03:55:47;;;;;;;19.05;10.35;;;;;;;0.06;85.98;91349.98;1808831;76;21207;-74
2021/01/24 03:58:15;;;;;;;15.48;8.80;;;;;;;-0.01;86.38;91350.72;1878624;76;22053;-74
2021/01/24 04:00:42;;;;;;;32.48;16.75;;;;;;;0.00;86.62;91343.49;1863446;75;21362;-74
2021/01/24 04:03:10;;;;;;;19.85;9.50;;;;;;;0.02;86.85;91347.11;1812125;77;21212;-74
2021/01/24 04:05:38;;;;;;;10.72;6.87;;;;;;;0.01;86.85;91342.34;1793687;78;21186;-75
2021/01/24 04:08:05;;;;;;;12.13;5.83;;;;;;;0.03;87.04;91333.36;1786980;79;22144;-73
2021/01/24 04:10:34;;;;;;;14.20;7.22;;;;;;;0.09;87.14;91336.44;1837844;77;21148;-74
2021/01/24 04:13:01;;;;;;;9.77;5.03;;;;;;;0.12;87.03;91324.41;1851511;77;21352;-74
2021/01/24 04:15:29;;;;;;;7.17;4.05;;;;;;;0.16;86.92;91327.86;1845370;77;21136;-73
2021/01/24 04:17:56;;;;;;;35.17;19.35;;;;;;;0.20;87.11;91331.30;1877107;74;21648;-72
2021/01/24 04:20:24;;;;;;;32.23;19.02;;;;;;;0.23;86.89;91333.20;1894473;75;21174;-74
2021/01/24 04:22:51;;;;;;;11.85;8.25;;;;;;;0.23;86.71;91331.88;1827726;78;21098;-74
2021/01/24 04:25:19;;;;;;;15.88;9.05;;;;;;;0.26;86.76;91324.98;1822904;78;21867;-73
2021/01/24 04:27:46;;;;;;;16.00;8.45;;;;;;;0.31;86.83;91321.19;1846013;77;21131;-73
2021/01/24 04:30:15;;;;;;;20.40;11.45;;;;;;;0.35;86.75;91325.96;1852187;77;21175;-73
2021/01/24 04:32:43;;;;;;;22.40;12.53;;;;;;;0.38;86.53;91328.63;1814384;75;21477;-74
2021/01/24 04:35:12;;;;;;;30.23;18.62;;;;;;;0.39;86.34;91334.74;1882587;75;21163;-74
2021/01/24 04:37:39;;;;;;;37.88;22.32;;;;;;;0.39;86.31;91342.19;1823266;78;22708;-74
2021/01/24 04:40:09;;;;;;;16.10;9.43;;;;;;;0.36;86.29;91329.58;1811011;78;21164;-74
2021/01/24 04:42:37;;;;;;;13.30;7.85;;;;;;;0.39;86.61;91328.05;1854080;76;21504;-73
2021/01/24 04:45:08;;;;;;;17.45;9.90;;;;;;;0.41;86.82;91323.84;1845199;76;21195;-73
2021/01/24 04:47:44;;;;;;;32.53;15.72;;;;;;;0.43;86.64;91329.58;1806159;76;21147;-74
2021/01/24 04:50:13;;;;;;;31.12;16.05;;;;;;;0.42;86.43;91326.72;1876010;76;21356;-74
2021/01/24 04:52:40;;;;;;;32.85;18.05;;;;;;;0.38;86.07;91319.28;1786269;79;21203;-74
2021/01/24 04:55:09;;;;;;;13.18;8.13;;;;;;;0.31;86.25;91320.61;1785273;78;21183;-73
2021/01/24 04:57:36;;;;;;;8.90;5.97;;;;;;;0.29;86.67;91320.79;1785738;78;21181;-73
2021/01/24 05:00:05;;;;;;;16.67;12.28;;;;;;;0.35;87.06;91321.38;1786347;77;21147;-73
2021/01/24 05:02:35;;;;;;;27.30;14.70;;;;;;;0.40;87.05;91316.97;1853337;76;21403;-74
2021/01/24 05:05:04;;;;;;;30.77;17.62;;;;;;;0.45;86.88;91317.16;1818925;77;21327;-74
2021/01/24 05:07:33;;;;;;;32.67;18.62;;;;;;;0.45;86.60;91317.94;1856522;77;21284;-73
2021/01/24 05:10:02;;;;;;;29.07;16.65;;;;;;;0.47;86.33;91314.88;1841989;77;21178;-74
2021/01/24 05:12:30;;;;;;;31.25;18.30;;;;;;;0.48;86.21;91315.81;1851232;76;21107;-74
2021/01/24 05:15:03;;;;;;;38.55;20.10;;;;;;;0.52;86.03;91312.37;1893971;74;21791;-74
2021/01/24 05:17:27;;;;;;;40.43;23.02;;;;;;;0.51;85.78;91312.95;1844824;77;21721;-74
2021/01/24 05:19:55;;;;;;;36.10;22.67;;;;;;;0.48;85.83;91305.70;1821753;78;21143;-74
2021/01/24 05:22:22;;;;;;;31.75;18.12;;;;;;;0.47;85.86;91304.17;1858586;75;21182;-74
2021/01/24 05:24:49;;;;;;;33.50;19.25;;;;;;;0.47;85.91;91305.52;1845121;75;21776;-74
2021/01/24 05:27:17;;;;;;;40.65;21.70;;;;;;;0.46;86.01;91306.67;1850086;75;21190;-74
2021/01/24 05:29:44;;;;;;;33.53;18.73;;;;;;;0.47;86.05;91318.88;1879825;75;21143;-74
2021/01/24 05:32:12;;;;;;;40.17;22.00;;;;;;;0.45;85.78;91318.48;1823480;78;22205;-72
2021/01/24 05:34:43;;;;;;;50.08;25.37;;;;;;;0.43;85.77;91315.45;1891142;75;21697;-74
2021/01/24 05:37:11;;;;;;;41.88;22.10;;;;;;;0.42;85.71;91309.34;1837720;75;21203;-73
2021/01/24 05:39:39;;;;;;;46.98;25.45;;;;;;;0.41;85.70;91307.80;1839867;77;21629;-74
2021/01/24 05:42:07;;;;;;;19.05;10.75;;;;;;;0.43;85.77;91307.43;1760591;79;21178;-74
2021/01/24 05:44:35;;;;;;;15.23;8.53;;;;;;;0.43;86.00;91305.52;1787464;76;21158;-73
2021/01/24 05:47:03;;;;;;;18.17;9.30;;;;;;;0.46;86.46;91310.10;1839288;76;21151;-73
2021/01/24 05:49:33;;;;;;;12.85;7.60;;;;;;;0.52;86.54;91305.70;1792010;77;21180;-74
2021/01/24 05:52:03;;;;;;;11.48;7.53;;;;;;;0.57;86.58;91301.31;1809695;77;22357;-74
2021/01/24 05:54:46;;;;;;;56.55;31.45;;;;;;;0.59;86.80;91301.10;1811244;78;21780;-75
2021/01/24 05:57:16;;;;;;;54.53;30.48;;;;;;;0.62;86.77;91310.28;1819590;77;21173;-72
2021/01/24 05:59:52;;;;;;;44.42;27.95;;;;;;;0.57;86.55;91314.11;1817979;78;21156;-73
2021/01/24 06:02:21;;;;;;;37.80;24.23;;;;;;;0.53;86.55;91309.89;1843776;77;21119;-74
2021/01/24 06:04:50;;;;;;;46.63;24.90;;;;;;;0.48;86.60;91310.47;1783989;78;21582;-74
2021/01/24 06:07:18;;;;;;;43.00;24.15;;;;;;;0.47;86.58;91314.30;1823604;77;21713;-74
2021/01/24 06:09:47;;;;;;;28.52;16.75;;;;;;;0.47;86.46;91310.28;1817604;78;21153;-75
2021/01/24 06:12:18;;;;;;;29.15;17.48;;;;;;;0.47;86.45;91306.85;1815966;78;21199;-74
2021/01/24 06:14:52;;;;;;;36.60;20.40;;;;;;;0.46;86.56;91307.43;1778406;79;21202;-75
2021/01/24 06:17:34;;;;;;;35.75;19.80;;;;;;;0.47;86.52;91298.25;1786956;79;21365;-73
2021/01/24 06:20:06;;;;;;;40.67;24.80;;;;;;;0.51;86.47;91296.16;1799752;79;21931;-72
2021/01/24 06:22:44;;;;;;;55.48;36.15;;;;;;;0.54;86.43;91312.20;1788582;78;21185;-73
2021/01/24 06:25:29;;;;;;;28.95;18.67;;;;;;;0.55;86.35;91298.25;1805365;77;21194;-73
2021/01/24 06:28:05;;;;;;;37.85;21.77;;;;;;;0.50;86.45;91285.27;1812676;78;21228;-74
2021/01/24 06:30:32;;;;;;;91.70;50.78;;;;;;;0.47;87.50;91298.83;1808107;77;21209;-74
2021/01/24 06:33:19;;;;;;;86.82;47.27;;;;;;;0.51;87.21;91298.83;1880513;76;21186;-75
2021/01/24 06:36:01;;;;;;;38.33;21.42;;;;;;;0.48;87.14;91290.98;1858644;76;21178;-75
2021/01/24 06:38:33;;;;;;;25.72;16.77;;;;;;;0.49;87.38;91305.91;1800190;79;21203;-74
2021/01/24 06:41:05;;;;;;;23.83;14.10;;;;;;;0.52;87.69;91296.34;1833733;77;21649;-74
2021/01/24 06:43:44;;;;;;;51.10;27.42;;;;;;;0.49;87.95;91303.23;1789017;79;22760;-74
2021/01/24 06:46:32;;;;;;;30.00;17.50;;;;;;;0.48;87.77;91304.36;1776662;79;21203;-72
2021/01/24 06:49:00;;;;;;;42.33;26.27;;;;;;;0.53;88.02;91307.22;1813957;78;21143;-73
2021/01/24 06:51:39;;;;;;;28.50;16.10;;;;;;;0.59;87.87;91300.34;1815379;78;21673;-74
2021/01/24 06:54:17;;;;;;;27.75;16.23;;;;;;;0.64;87.93;91298.61;1812797;76;21437;-74
2021/01/24 06:56:47;;;;;;;29.35;18.27;;;;;;;0.72;88.05;91303.58;1874140;75;21823;-73
2021/01/24 06:59:15;;;;;;;37.88;21.25;;;;;;;0.75;88.14;91299.36;1808326;79;21222;-73
2021/01/24 07:01:43;;;;;;;28.30;17.70;;;;;;;0.80;88.13;91296.31;1806058;78;21479;-73
2021/01/24 07:04:30;;;;;;;28.40;16.82;;;;;;;0.84;88.25;91297.64;1835936;77;21158;-74
2021/01/24 07:07:01;;;;;;;43.78;27.37;;;;;;;0.88;88.42;91291.70;1818834;77;21234;-73
2021/01/24 07:09:38;;;;;;;40.33;26.05;;;;;;;0.90;88.45;91300.88;1798168;78;21186;-73
2021/01/24 07:12:06;;;;;;;32.58;18.80;;;;;;;0.93;88.36;91297.41;1814964;79;22414;-74
2021/01/24 07:14:39;;;;;;;22.82;13.50;;;;;;;0.96;88.56;91300.66;1792833;79;21048;-77
2021/01/24 07:17:10;;;;;;;23.47;13.30;;;;;;;1.04;89.04;91296.05;1830163;78;21625;-78
2021/01/24 07:19:48;;;;;;;33.13;20.05;;;;;;;1.14;89.94;91299.86;1813687;78;21173;-74
2021/01/24 07:22:25;;;;;;;21.48;12.95;;;;;;;1.19;89.31;91300.20;1828643;75;21380;-75
2021/01/24 07:24:53;;;;;;;15.00;9.05;;;;;;;1.25;89.46;91301.17;1855516;75;21196;-75
2021/01/24 07:27:24;;;;;;;14.20;8.30;;;;;;;1.33;89.62;91304.00;1757645;79;21310;-77
2021/01/24 07:29:52;;;;;;;25.27;17.20;;;;;;;1.42;89.82;91301.66;1813436;79;21186;-75
2021/01/24 07:32:22;;;;;;;27.22;17.37;;;;;;;1.50;89.39;91293.77;1919838;74;21222;-76
2021/01/24 07:34:54;;;;;;;20.17;12.58;;;;;;;1.55;89.18;91305.44;1838391;75;21151;-75
2021/01/24 07:37:26;;;;;;;13.10;8.40;;;;;;;1.61;89.04;91306.55;1817468;76;21167;-77
2021/01/24 07:39:54;;;;;;;8.18;5.58;;;;;;;1.67;89.13;91301.55;1885196;74;21195;-77
2021/01/24 07:42:22;;;;;;;5.40;4.17;;;;;;;1.73;89.24;91309.94;1836740;75;21172;-78
2021/01/24 07:44:50;;;;;;;6.62;4.50;;;;;;;1.79;89.27;91317.19;1903958;75;21175;-77
2021/01/24 07:47:17;;;;;;;6.72;4.15;;;;;;;1.84;89.29;91311.98;1853542;75;21191;-76
2021/01/24 07:49:45;;;;;;;6.90;4.58;;;;;;;1.91;89.21;91310.03;1839437;77;21156;-74
2021/01/24 07:52:12;;;;;;;6.83;4.60;;;;;;;1.99;89.14;91314.01;1830289;78;21117;-74
2021/01/24 07:54:40;;;;;;;4.85;4.25;;;;;;;2.08;89.09;91320.47;1794095;79;21180;-73
2021/01/24 07:57:10;;;;;;;5.75;4.50;;;;;;;2.14;88.86;91310.87;1787315;79;21521;-73
2021/01/24 07:59:38;;;;;;;18.65;10.45;;;;;;;2.23;88.76;91313.69;1865118;77;21347;-76
2021/01/24 08:02:05;;;;;;;16.73;10.30;;;;;;;2.30;88.67;91320.34;1808240;76;21210;-74
2021/01/24 08:04:36;;;;;;;10.75;6.60;;;;;;;2.34;88.50;91315.12;1836449;76;21508;-74
2021/01/24 08:07:09;;;;;;;8.18;5.72;;;;;;;2.39;88.38;91321.98;1843654;76;21081;-76
2021/01/24 08:09:36;;;;;;;11.60;6.92;;;;;;;2.42;88.29;91320.63;1785884;76;21252;-76
2021/01/24 08:14:42;;;;;;;16.17;9.53;;;;;;;2.53;87.86;91313.84;1849355;77;21108;-76
2021/01/24 08:17:15;;;;;;;30.10;15.45;;;;;;;2.58;87.40;91317.43;1796802;77;21099;-76
2021/01/24 08:19:43;;;;;;;20.40;10.63;;;;;;;2.63;87.36;91310.31;1855431;76;21618;-75
2021/01/24 08:22:11;;;;;;;9.73;5.40;;;;;;;2.67;87.24;91298.97;1853236;76;21191;-75
2021/01/24 08:24:39;;;;;;;4.97;3.77;;;;;;;2.74;86.94;91290.66;1786912;78;21740;-77
2021/01/24 08:27:08;;;;;;;8.45;6.08;;;;;;;2.81;86.66;91290.59;1841308;77;21231;-76
2021/01/24 08:29:37;;;;;;;11.68;6.75;;;;;;;2.87;86.67;91307.80;1808630;77;21168;-77
2021/01/24 08:32:06;;;;;;;9.40;6.10;;;;;;;2.94;87.02;91306.98;1853653;75;21348;-76
2021/01/24 08:34:35;;;;;;;17.60;9.73;;;;;;;3.03;86.47;91301.89;1883262;74;21071;-76
2021/01/24 08:37:06;;;;;;;10.43;6.62;;;;;;;3.13;85.77;91304.47;1820366;77;21359;-76
2021/01/24 08:39:34;;;;;;;7.05;5.03;;;;;;;3.33;86.31;91302.54;1832962;76;21096;-75
2021/01/24 08:42:05;;;;;;;5.28;3.80;;;;;;;3.60;86.25;91299.92;1878873;76;21539;-75
2021/01/24 08:44:34;;;;;;;3.45;2.90;;;;;;;3.76;85.25;91288.59;1811613;76;21140;-74
2021/01/24 08:47:06;;;;;;;3.70;2.30;;;;;;;3.86;83.79;91296.52;1807950;77;21291;-73
2021/01/24 08:49:34;;;;;;;2.45;2.10;;;;;;;3.91;83.02;91299.33;1805490;76;21191;-75
2021/01/24 08:52:04;;;;;;;2.15;1.90;;;;;;;3.90;82.77;91298.58;1799691;79;21211;-75
2021/01/24 08:54:36;;;;;;;2.47;1.92;;;;;;;3.94;82.36;91304.49;1804592;78;21352;-75
2021/01/24 08:57:18;;;;;;;3.27;2.47;;;;;;;4.00;82.09;91305.58;1820546;77;21324;-77
2021/01/24 08:59:54;;;;;;;2.25;1.85;;;;;;;4.10;81.73;91310.06;1836206;78;21108;-76
2021/01/24 09:02:32;;;;;;;1.87;1.55;;;;;;;4.18;81.27;91301.30;1813060;75;21251;-76
2021/01/24 09:05:01;;;;;;;2.17;1.60;;;;;;;4.21;79.78;91295.84;1801710;79;21666;-76
2021/01/24 09:07:42;;;;;;;1.92;1.57;;;;;;;4.21;78.98;91294.50;1818333;78;21159;-74
2021/01/24 09:10:27;;;;;;;2.40;1.75;;;;;;;4.24;79.36;91299.66;1795342;76;21152;-74
2021/01/24 09:13:03;;;;;;;2.08;1.60;;;;;;;4.23;79.38;91306.22;1890204;75;21364;-75
2021/01/24 09:15:32;;;;;;;2.12;1.75;;;;;;;4.21;79.07;91300.47;1816023;78;21871;-75
2021/01/24 09:18:00;;;;;;;2.12;1.57;;;;;;;4.18;79.16;91299.38;1805227;78;21730;-75
2021/01/24 09:20:29;;;;;;;1.82;1.42;;;;;;;4.16;78.18;91321.11;1805689;79;21179;-74
2021/01/24 09:22:56;;;;;;;2.85;1.80;;;;;;;4.11;77.56;91312.33;1805925;78;21183;-75
2021/01/24 09:25:24;;;;;;;1.75;1.65;;;;;;;4.12;77.86;91317.88;1807229;79;21199;-74
2021/01/24 09:27:52;;;;;;;1.75;1.40;;;;;;;4.13;78.58;91320.73;1812107;79;21262;-75
2021/01/24 09:30:20;;;;;;;1.22;1.12;;;;;;;4.11;77.93;91323.09;1789686;79;21061;-78
2021/01/24 09:32:48;;;;;;;1.82;1.27;;;;;;;4.06;78.38;91312.80;1811662;79;21202;-76
2021/01/24 09:35:16;;;;;;;2.15;1.90;;;;;;;4.02;78.14;91318.77;1850022;76;21151;-74
2021/01/24 09:37:43;;;;;;;1.70;1.37;;;;;;;3.99;78.57;91316.92;1849086;76;21171;-78
2021/01/24 09:40:11;;;;;;;2.98;1.50;;;;;;;3.98;78.98;91320.75;1810502;76;21598;-75
2021/01/24 09:42:39;;;;;;;1.20;1.12;;;;;;;3.96;79.24;91321.75;1875576;76;21171;-75
2021/01/24 09:45:08;;;;;;;1.50;1.40;;;;;;;3.94;79.37;91326.00;1855047;75;21326;-74
2021/01/24 09:47:36;;;;;;;1.22;0.90;;;;;;;3.87;79.17;91329.54;1836488;77;21203;-75
2021/01/24 09:50:05;;;;;;;1.22;1.07;;;;;;;3.84;79.34;91314.23;1831452;78;21084;-75
2021/01/24 09:52:33;;;;;;;1.27;1.17;;;;;;;3.80;78.70;91330.97;1793690;79;21374;-75
2021/01/24 09:55:00;;;;;;;0.78;0.78;;;;;;;3.80;79.23;91328.28;1784332;78;21117;-74
2021/01/24 09:57:28;;;;;;;0.90;0.90;;;;;;;3.80;79.19;91310.25;1813234;77;21131;-75
2021/01/24 09:59:56;;;;;;;0.70;0.70;;;;;;;3.78;79.36;91332.73;1794499;77;21650;-74
2021/01/24 10:02:24;;;;;;;1.98;1.05;;;;;;;3.76;79.54;91333.73;1765935;80;21163;-73
2021/01/24 10:04:52;;;;;;;1.00;1.00;;;;;;;3.72;79.51;91322.81;1790620;80;21204;-75
2021/01/24 10:07:22;;;;;;;1.07;0.98;;;;;;;3.72;79.71;91333.56;1768597;78;21155;-74
2021/01/24 10:09:58;;;;;;;1.35;1.12;;;;;;;3.74;79.85;91328.56;1844670;76;21610;-74
2021/01/24 10:12:26;;;;;;;1.37;0.98;;;;;;;3.75;79.78;91320.67;1818062;78;21227;-75
2021/01/24 10:14:54;;;;;;;1.72;1.30;;;;;;;3.73;79.83;91315.71;1847111;77;21486;-76
2021/01/24 10:17:21;;;;;;;1.47;1.20;;;;;;;3.73;80.15;91314.95;1831672;75;21181;-75
2021/01/24 10:19:49;;;;;;;1.60;1.27;;;;;;;3.72;80.19;91319.54;1846891;76;21205;-77
2021/01/24 10:22:17;;;;;;;1.30;1.10;;;;;;;3.74;80.25;91327.22;1818025;78;21202;-75
2021/01/24 10:24:44;;;;;;;2.37;1.57;;;;;;;3.75;80.25;91326.05;1789854;78;21111;-76
2021/01/24 10:27:12;;;;;;;1.75;1.55;;;;;;;3.76;80.31;91322.97;1863588;76;21143;-75
2021/01/24 10:29:41;;;;;;;2.33;1.67;;;;;;;3.79;80.48;91313.32;1800713;77;21208;-76
2021/01/24 10:32:10;;;;;;;1.47;1.30;;;;;;;3.82;80.60;91323.27;1808917;77;21850;-76
2021/01/24 10:34:38;;;;;;;2.62;2.27;;;;;;;3.86;80.69;91310.55;1813151;77;22218;-77
2021/01/24 10:37:05;;;;;;;4.37;3.12;;;;;;;3.91;80.78;91315.47;1782053;78;21183;-76
2021/01/24 10:39:33;;;;;;;20.05;15.08;;;;;;;3.91;81.05;91306.05;1817788;78;21304;-78
2021/01/24 10:42:00;;;;;;;7.25;6.15;;;;;;;3.92;80.88;91307.59;1881015;75;22263;-74
2021/01/24 10:44:28;;;;;;;3.08;2.70;;;;;;;3.94;81.17;91306.59;1851866;75;21163;-76
2021/01/24 10:46:55;;;;;;;2.60;2.40;;;;;;;3.95;81.19;91313.52;1820021;77;21187;-76
2021/01/24 10:49:23;;;;;;;4.12;2.80;;;;;;;3.94;81.47;91308.53;1820416;78;21154;-76
2021/01/24 10:51:50;;;;;;;5.62;4.97;;;;;;;3.89;80.87;91319.16;1803440;79;21163;-77
2021/01/24 10:54:18;;;;;;;3.80;3.25;;;;;;;3.87;81.60;91309.38;1805241;79;21588;-77
2021/01/24 10:56:46;;;;;;;1.92;1.82;;;;;;;3.87;81.41;91314.19;1815519;77;21122;-76
2021/01/24 10:59:13;;;;;;;1.75;1.65;;;;;;;3.90;81.18;91319.33;1803857;77;21110;-77
2021/01/24 11:01:40;;;;;;;1.10;1.00;;;;;;;3.90;81.18;91307.23;1846239;75;21100;-77
2021/01/24 11:04:08;;;;;;;5.97;4.65;;;;;;;3.89;81.18;91301.68;1879909;76;21099;-77
2021/01/24 11:06:35;;;;;;;2.00;1.72;;;;;;;3.92;81.47;91305.49;1804354;76;21495;-78
2021/01/24 11:09:03;;;;;;;4.85;2.20;;;;;;;3.96;81.94;91291.42;1811427;78;21147;-77
2021/01/24 11:11:31;;;;;;;6.50;4.75;;;;;;;3.96;82.20;91297.55;1802032;78;21102;-77
2021/01/24 11:13:58;;;;;;;2.00;1.75;;;;;;;3.92;82.50;91308.19;1842000;77;21418;-77
2021/01/24 11:16:26;;;;;;;2.52;1.67;;;;;;;3.88;82.26;91300.16;1846846;77;21115;-76
2021/01/24 11:18:53;;;;;;;1.85;1.20;;;;;;;3.84;82.37;91305.58;1822705;78;21410;-75
2021/01/24 11:21:21;;;;;;;3.20;1.40;;;;;;;3.79;81.96;91299.88;1822064;78;21179;-75
2021/01/24 11:23:48;;;;;;;2.75;2.22;;;;;;;3.77;81.98;91326.42;1821854;77;21668;-75
2021/01/24 11:26:16;;;;;;;1.00;1.00;;;;;;;3.69;81.93;91317.69;1849268;75;21138;-75
2021/01/24 11:28:44;;;;;;;1.30;1.17;;;;;;;3.63;81.25;91310.63;1882412;75;21264;-75
2021/01/24 11:31:11;;;;;;;2.72;1.02;;;;;;;3.61;81.52;91310.84;1786902;80;21380;-75
2021/01/24 11:33:38;;;;;;;1.75;0.88;;;;;;;3.59;81.79;91317.98;1884984;75;21605;-76
2021/01/24 11:36:08;;;;;;;0.53;0.53;;;;;;;3.57;81.76;91310.13;1838837;75;21673;-76
2021/01/24 11:38:35;;;;;;;1.05;0.88;;;;;;;3.55;80.95;91315.91;1802277;78;21183;-75
2021/01/24 11:41:05;;;;;;;3.22;2.77;;;;;;;3.53;81.13;91315.54;1821141;76;21146;-75
2021/01/24 11:43:32;;;;;;;1.57;1.12;;;;;;;3.52;81.23;91319.98;1878597;76;22511;-76